Time;durP1;ratioP1;P1;durP2;ratioP2;P2;SDS_P1;SDS_P2;PMS_P1;PMS_P2;Temp;Humidity;BMP_temperature;BMP_pressure;BME280_temperature;BME280_humidity;BME280_pressure;Samples;Min_cycle;Max_cycle;Signal;HPM_P1;HPM_P2
2022/06/18 00:02:12;;;;;;;14.00;2.50;;;17.80;85.60;;;;;;4990381;28;20878;-52
2022/06/18 00:04:39;;;;;;;13.03;1.80;;;17.80;85.20;;;;;;5022490;28;20474;-52
2022/06/18 00:07:08;;;;;;;2.40;1.80;;;17.70;85.80;;;;;;5005242;28;20481;-52
2022/06/18 00:09:41;;;;;;;3.70;1.97;;;17.80;86.70;;;;;;5008321;28;20488;-52
2022/06/18 00:14:59;;;;;;;2.10;1.47;;;17.70;86.60;;;;;;5018534;28;20483;-52
2022/06/18 00:17:26;;;;;;;2.20;1.73;;;17.50;87.40;;;;;;5002115;28;20476;-52
2022/06/18 00:19:53;;;;;;;3.40;2.30;;;17.30;88.40;;;;;;5009353;28;21104;-53
2022/06/18 00:22:22;;;;;;;2.50;1.70;;;17.30;88.50;;;;;;5009018;28;20476;-52
2022/06/18 00:24:51;;;;;;;3.30;1.50;;;17.30;88.30;;;;;;5007464;28;20481;-52
2022/06/18 00:27:18;;;;;;;2.80;1.50;;;17.30;88.20;;;;;;5004309;28;20535;-52
2022/06/18 00:29:47;;;;;;;2.20;1.80;;;17.30;88.70;;;;;;5015833;28;20491;-52
2022/06/18 00:32:13;;;;;;;4.90;1.37;;;17.30;88.60;;;;;;5008008;28;20480;-52
2022/06/18 00:34:40;;;;;;;7.03;1.80;;;17.40;87.20;;;;;;5010254;28;20484;-52
2022/06/18 00:37:07;;;;;;;3.50;2.10;;;17.40;87.10;;;;;;5006555;28;20488;-52
2022/06/18 00:39:34;;;;;;;2.30;1.73;;;17.40;87.20;;;;;;5009312;28;20473;-52
2022/06/18 00:42:06;;;;;;;3.50;1.73;;;17.30;86.80;;;;;;5010695;28;20492;-51
2022/06/18 00:44:35;;;;;;;2.30;1.73;;;17.30;87.50;;;;;;5007264;28;20488;-51
2022/06/18 00:47:15;;;;;;;2.10;1.47;;;17.30;88.50;;;;;;4994177;28;20477;-52
2022/06/18 00:49:48;;;;;;;2.33;1.70;;;17.20;87.80;;;;;;5012800;28;20479;-52
2022/06/18 00:52:19;;;;;;;2.97;2.07;;;17.20;87.70;;;;;;5009589;28;21176;-52
2022/06/18 00:54:49;;;;;;;2.20;1.73;;;17.20;87.50;;;;;;5009219;28;20492;-52
2022/06/18 00:57:21;;;;;;;2.67;1.70;;;17.20;87.70;;;;;;5003793;28;20758;-52
2022/06/18 00:59:52;;;;;;;2.30;1.70;;;17.20;87.90;;;;;;5008201;28;20476;-52
2022/06/18 01:02:23;;;;;;;3.57;1.90;;;17.30;88.00;;;;;;5008352;28;20475;-52
2022/06/18 01:04:50;;;;;;;2.40;1.80;;;17.10;87.40;;;;;;5011654;28;21045;-52
2022/06/18 01:07:26;;;;;;;3.57;1.70;;;17.10;88.50;;;;;;5002862;28;20480;-52
2022/06/18 01:09:54;;;;;;;3.73;2.13;;;17.00;88.20;;;;;;5010981;28;20483;-52
2022/06/18 01:12:23;;;;;;;2.13;1.53;;;17.00;88.10;;;;;;5004759;28;20496;-52
2022/06/18 01:14:58;;;;;;;2.63;1.60;;;17.00;88.10;;;;;;5008661;28;20690;-52
2022/06/18 01:17:25;;;;;;;6.10;1.83;;;17.00;88.50;;;;;;5003089;28;20491;-52
2022/06/18 01:19:52;;;;;;;2.80;1.63;;;17.00;88.30;;;;;;5008568;28;20940;-52
2022/06/18 01:22:28;;;;;;;2.83;1.43;;;16.80;89.00;;;;;;5006317;28;20866;-53
2022/06/18 01:24:57;;;;;;;2.70;1.80;;;16.80;88.80;;;;;;5006603;28;20484;-52
2022/06/18 01:27:25;;;;;;;2.53;1.90;;;16.80;88.30;;;;;;5002880;28;21088;-57
2022/06/18 01:29:53;;;;;;;5.90;1.60;;;16.70;88.50;;;;;;5012362;28;20491;-52
2022/06/18 01:32:22;;;;;;;2.20;1.80;;;16.80;87.20;;;;;;5008035;28;20489;-53
2022/06/18 01:34:50;;;;;;;2.20;1.57;;;16.80;89.00;;;;;;5004757;28;20499;-52
2022/06/18 01:37:17;;;;;;;2.77;1.60;;;16.80;88.90;;;;;;5004836;28;20477;-52
2022/06/18 01:39:47;;;;;;;3.50;2.17;;;16.70;89.30;;;;;;5006455;28;20480;-52
2022/06/18 01:42:20;;;;;;;2.53;1.83;;;16.50;90.00;;;;;;5005197;28;20908;-52
2022/06/18 01:44:51;;;;;;;2.73;1.70;;;16.50;89.50;;;;;;5007862;28;21115;-52
2022/06/18 01:47:21;;;;;;;4.93;2.37;;;16.50;89.50;;;;;;5001048;28;20472;-52
2022/06/18 01:49:50;;;;;;;2.00;1.70;;;16.50;90.00;;;;;;5007100;28;20907;-53
2022/06/18 01:52:21;;;;;;;3.00;1.67;;;16.40;89.70;;;;;;5008910;28;20480;-52
2022/06/18 01:54:53;;;;;;;2.90;1.70;;;16.40;89.80;;;;;;5010126;28;21569;-53
2022/06/18 01:57:25;;;;;;;2.77;2.30;;;16.40;89.60;;;;;;5005669;28;20485;-52
2022/06/18 01:59:56;;;;;;;4.20;2.30;;;16.50;88.80;;;;;;5004410;28;20480;-53
2022/06/18 02:02:23;;;;;;;2.27;1.60;;;16.50;89.50;;;;;;5006263;28;20477;-53
2022/06/18 02:04:50;;;;;;;2.30;1.93;;;16.40;89.50;;;;;;5023315;28;20488;-52
2022/06/18 02:07:18;;;;;;;3.70;2.10;;;16.50;89.10;;;;;;5005234;28;20492;-53
2022/06/18 02:09:53;;;;;;;6.90;2.37;;;16.50;89.70;;;;;;5008887;28;20484;-53
2022/06/18 02:12:24;;;;;;;6.13;2.30;;;16.40;89.50;;;;;;5002530;28;20527;-53
2022/06/18 02:14:55;;;;;;;2.83;2.10;;;16.40;89.50;;;;;;5009573;28;20496;-53
2022/06/18 02:17:24;;;;;;;2.80;2.00;;;16.40;89.90;;;;;;5005002;28;20527;-53
2022/06/18 02:19:54;;;;;;;2.97;1.93;;;16.30;90.10;;;;;;5009318;28;20477;-53
2022/06/18 02:22:26;;;;;;;4.37;1.70;;;16.20;89.90;;;;;;5009818;28;20818;-54
2022/06/18 02:24:53;;;;;;;5.93;1.97;;;16.20;89.70;;;;;;5008808;28;20566;-53
2022/06/18 02:27:21;;;;;;;3.07;2.03;;;16.30;89.50;;;;;;5005367;28;20477;-53
2022/06/18 02:29:48;;;;;;;4.30;2.37;;;16.30;90.00;;;;;;5010499;28;20488;-53
2022/06/18 02:32:21;;;;;;;2.20;1.83;;;16.20;90.00;;;;;;5014258;28;20910;-52
2022/06/18 02:34:48;;;;;;;2.27;1.87;;;16.20;90.20;;;;;;5000195;28;20721;-53
2022/06/18 02:37:22;;;;;;;2.30;1.70;;;16.20;90.20;;;;;;5012243;28;20977;-53
2022/06/18 02:39:56;;;;;;;5.17;2.40;;;16.20;90.10;;;;;;4997309;28;21218;-53
2022/06/18 02:42:24;;;;;;;2.60;1.73;;;16.20;90.00;;;;;;5015970;28;20554;-53
2022/06/18 02:44:52;;;;;;;3.17;2.47;;;16.20;90.00;;;;;;5001509;28;20485;-52
2022/06/18 02:47:20;;;;;;;6.07;1.47;;;16.20;89.70;;;;;;5013524;28;21032;-53
2022/06/18 02:49:50;;;;;;;3.30;1.63;;;16.20;90.00;;;;;;5012222;28;20896;-53
2022/06/18 02:52:17;;;;;;;7.27;2.57;;;16.10;90.20;;;;;;5009678;28;20488;-53
2022/06/18 02:54:44;;;;;;;8.17;2.20;;;15.90;90.60;;;;;;5002956;28;20493;-53
2022/06/18 02:57:27;;;;;;;3.40;1.80;;;15.90;90.50;;;;;;5005155;28;21041;-53
2022/06/18 02:59:54;;;;;;;3.00;2.50;;;15.90;90.40;;;;;;5016366;28;20511;-53
2022/06/18 03:02:21;;;;;;;1.97;1.47;;;15.90;90.40;;;;;;5020064;28;20469;-54
2022/06/18 03:04:48;;;;;;;2.73;2.20;;;15.90;90.30;;;;;;5022518;28;20492;-53
2022/06/18 03:07:15;;;;;;;2.63;2.00;;;15.90;90.50;;;;;;5020683;28;20488;-53
2022/06/18 03:12:22;;;;;;;3.93;2.20;;;15.90;90.30;;;;;;5021821;28;20476;-53
2022/06/18 03:14:50;;;;;;;5.03;2.70;;;15.90;90.30;;;;;;5022419;28;20492;-53
2022/06/18 03:17:17;;;;;;;3.50;2.43;;;15.80;90.30;;;;;;5001685;28;20498;-54
2022/06/18 03:19:47;;;;;;;2.17;1.50;;;15.80;90.40;;;;;;5027226;28;20570;-53
2022/06/18 03:22:17;;;;;;;3.40;1.90;;;15.80;90.50;;;;;;5021281;28;20997;-53
2022/06/18 03:24:44;;;;;;;5.37;2.13;;;15.80;90.30;;;;;;5016326;28;20484;-54
2022/06/18 03:27:12;;;;;;;2.60;2.10;;;15.80;90.50;;;;;;5018262;28;21327;-53
2022/06/18 03:29:38;;;;;;;2.37;2.17;;;15.80;90.50;;;;;;5017600;28;20974;-53
2022/06/18 03:32:08;;;;;;;3.60;1.70;;;15.80;90.40;;;;;;5022460;28;20510;-53
2022/06/18 03:34:35;;;;;;;2.77;2.30;;;15.80;90.60;;;;;;5022649;28;20484;-53
2022/06/18 03:37:01;;;;;;;2.67;2.20;;;15.80;90.50;;;;;;5005157;28;20494;-53
2022/06/18 03:39:28;;;;;;;3.60;2.60;;;15.80;90.50;;;;;;5021758;28;20492;-53
2022/06/18 03:41:55;;;;;;;2.37;2.17;;;15.80;90.60;;;;;;5021782;28;20825;-53
2022/06/18 03:44:23;;;;;;;2.20;1.80;;;15.70;90.80;;;;;;5021854;28;20611;-53
2022/06/18 03:46:50;;;;;;;2.50;2.30;;;15.70;90.60;;;;;;5011638;28;21059;-54
2022/06/18 03:49:25;;;;;;;2.80;1.90;;;15.70;90.70;;;;;;5024427;28;20572;-54
2022/06/18 03:51:51;;;;;;;2.77;2.37;;;15.70;90.80;;;;;;5009583;28;20519;-54
2022/06/18 03:54:18;;;;;;;2.97;2.20;;;15.60;90.70;;;;;;5023050;28;20493;-53
2022/06/18 03:56:45;;;;;;;2.53;2.20;;;15.60;90.70;;;;;;5013872;28;20854;-53
2022/06/18 03:59:12;;;;;;;3.30;2.03;;;15.60;90.80;;;;;;5017679;28;20484;-53
2022/06/18 04:01:40;;;;;;;3.47;1.97;;;15.60;91.10;;;;;;5032171;28;20492;-53
2022/06/18 04:04:07;;;;;;;2.50;2.30;;;15.60;91.40;;;;;;5018386;28;20486;-54
2022/06/18 04:06:35;;;;;;;3.47;3.17;;;15.50;91.40;;;;;;5004114;28;20495;-54
2022/06/18 04:09:03;;;;;;;3.83;2.50;;;15.40;91.30;;;;;;5028244;28;21058;-53
2022/06/18 04:11:30;;;;;;;4.87;2.97;;;15.50;91.60;;;;;;5009493;28;20972;-54
2022/06/18 04:13:56;;;;;;;4.00;2.60;;;15.50;91.60;;;;;;5030463;28;20468;-53
2022/06/18 04:16:23;;;;;;;5.20;2.50;;;15.50;91.80;;;;;;5018615;28;20487;-53
2022/06/18 04:18:50;;;;;;;2.93;2.60;;;15.60;91.60;;;;;;5014746;28;20575;-53
2022/06/18 04:21:17;;;;;;;2.97;2.67;;;15.60;91.60;;;;;;5021944;28;20514;-54
2022/06/18 04:23:45;;;;;;;5.23;2.50;;;15.70;91.60;;;;;;5012944;28;20488;-54
2022/06/18 04:26:13;;;;;;;2.40;2.00;;;15.80;91.60;;;;;;5012835;28;20495;-53
2022/06/18 04:28:40;;;;;;;3.37;2.23;;;15.80;91.70;;;;;;5018442;28;20994;-54
2022/06/18 04:31:07;;;;;;;4.20;2.03;;;15.70;92.30;;;;;;5011724;28;20485;-53
2022/06/18 04:33:34;;;;;;;2.63;2.43;;;15.70;92.40;;;;;;5003276;28;20488;-54
2022/06/18 04:36:01;;;;;;;3.20;2.90;;;15.70;92.40;;;;;;5017676;28;20493;-53
2022/06/18 04:38:28;;;;;;;2.43;2.23;;;15.80;92.70;;;;;;5012367;28;20479;-54
2022/06/18 04:40:56;;;;;;;3.30;2.90;;;15.90;92.60;;;;;;5014188;28;20494;-54
2022/06/18 04:43:24;;;;;;;2.83;2.63;;;15.90;92.70;;;;;;5010817;28;20479;-53
2022/06/18 04:45:52;;;;;;;4.83;2.80;;;16.00;92.90;;;;;;5010160;28;20489;-53
2022/06/18 04:48:19;;;;;;;3.33;2.50;;;16.10;93.10;;;;;;5004996;28;20489;-53
2022/06/18 04:50:46;;;;;;;3.40;3.10;;;16.10;93.20;;;;;;5015332;28;20493;-53
2022/06/18 04:53:13;;;;;;;3.70;3.20;;;16.10;93.70;;;;;;5020210;28;20472;-53
2022/06/18 04:55:40;;;;;;;3.53;3.23;;;16.00;93.90;;;;;;5016447;28;20483;-54
2022/06/18 04:58:08;;;;;;;4.00;2.97;;;16.00;94.30;;;;;;5018457;28;20476;-53
2022/06/18 05:00:35;;;;;;;3.13;2.83;;;16.00;94.60;;;;;;5009157;28;20476;-53
2022/06/18 05:03:02;;;;;;;5.40;3.20;;;16.10;94.60;;;;;;5014110;28;20844;-53
2022/06/18 05:05:29;;;;;;;5.30;3.47;;;16.40;93.80;;;;;;5018817;28;20870;-53
2022/06/18 05:07:56;;;;;;;3.87;2.77;;;16.30;94.00;;;;;;5016025;28;20488;-54
2022/06/18 05:10:23;;;;;;;3.30;3.00;;;16.60;93.70;;;;;;5016563;28;20485;-54
2022/06/18 05:12:50;;;;;;;3.00;2.80;;;16.90;93.30;;;;;;5018711;28;20529;-53
2022/06/18 05:15:18;;;;;;;4.50;2.80;;;17.00;93.20;;;;;;5019616;28;20853;-53
2022/06/18 05:17:48;;;;;;;3.73;3.07;;;17.10;93.40;;;;;;5007809;28;21037;-53
2022/06/18 05:20:17;;;;;;;3.03;2.73;;;17.20;93.80;;;;;;5029826;28;20507;-53
2022/06/18 05:22:44;;;;;;;3.63;3.33;;;17.30;93.80;;;;;;5017517;28;20484;-53
2022/06/18 05:25:12;;;;;;;7.73;3.20;;;17.40;93.50;;;;;;5018668;28;21163;-54
2022/06/18 05:27:39;;;;;;;5.23;3.57;;;17.60;93.10;;;;;;5010368;28;20491;-54
2022/06/18 05:30:08;;;;;;;6.30;4.00;;;17.80;93.20;;;;;;5006587;28;20487;-53
2022/06/18 05:32:36;;;;;;;3.57;3.27;;;17.90;93.10;;;;;;5025911;28;20476;-54
2022/06/18 05:35:04;;;;;;;3.00;2.70;;;18.00;93.00;;;;;;5018286;28;20491;-54
2022/06/18 05:37:33;;;;;;;4.07;3.70;;;18.20;92.60;;;;;;5015598;28;20493;-54
2022/06/18 05:40:00;;;;;;;3.60;3.13;;;18.30;92.90;;;;;;5018155;28;20576;-54
2022/06/18 05:42:28;;;;;;;3.90;3.50;;;18.40;93.00;;;;;;5019203;28;20520;-54
2022/06/18 05:44:55;;;;;;;4.10;3.40;;;18.60;93.30;;;;;;5016733;28;20963;-54
2022/06/18 05:47:24;;;;;;;7.17;3.10;;;18.80;92.90;;;;;;5020048;28;20578;-55
2022/06/18 05:49:52;;;;;;;14.40;4.27;;;18.90;92.40;;;;;;5020988;28;20864;-54
2022/06/18 05:52:20;;;;;;;4.27;3.87;;;19.00;92.50;;;;;;5016914;28;20970;-54
2022/06/18 05:54:47;;;;;;;3.13;2.83;;;19.20;92.30;;;;;;5015434;28;20865;-54
2022/06/18 05:57:14;;;;;;;4.00;3.30;;;19.40;92.70;;;;;;5007678;28;20816;-53
2022/06/18 05:59:40;;;;;;;4.40;3.00;;;19.50;92.40;;;;;;5020870;28;20869;-54
2022/06/18 06:02:07;;;;;;;3.40;3.10;;;19.60;91.80;;;;;;5018737;28;20488;-53
2022/06/18 06:04:34;;;;;;;6.17;3.40;;;19.70;92.30;;;;;;5006310;28;20488;-53
2022/06/18 06:07:02;;;;;;;4.77;3.20;;;19.90;91.80;;;;;;5016475;28;21220;-53
2022/06/18 06:12:14;;;;;;;3.70;3.20;;;20.10;91.50;;;;;;5024902;28;21570;-54
2022/06/18 06:14:42;;;;;;;4.20;3.13;;;20.30;91.60;;;;;;5020582;28;20480;-54
2022/06/18 06:17:13;;;;;;;3.50;2.63;;;20.50;91.80;;;;;;5021428;28;20484;-53
2022/06/18 06:19:40;;;;;;;3.03;2.70;;;20.60;91.50;;;;;;5020013;28;20492;-53
2022/06/18 06:22:08;;;;;;;3.47;3.17;;;20.70;91.40;;;;;;5022146;28;20890;-53
2022/06/18 06:24:34;;;;;;;4.63;3.30;;;20.80;90.60;;;;;;5023313;28;20487;-53
2022/06/18 06:27:01;;;;;;;3.90;2.60;;;21.00;91.00;;;;;;5020498;28;20478;-53
2022/06/18 06:29:28;;;;;;;3.17;2.73;;;21.10;90.70;;;;;;5029517;28;20474;-54
2022/06/18 06:31:55;;;;;;;3.17;2.70;;;21.30;90.30;;;;;;5023089;28;20487;-53
2022/06/18 06:34:21;;;;;;;3.60;3.30;;;21.50;90.40;;;;;;5020532;28;20486;-53
2022/06/18 06:36:48;;;;;;;3.40;3.10;;;21.70;90.00;;;;;;5016850;28;20499;-53
2022/06/18 06:39:16;;;;;;;3.60;3.23;;;22.00;90.00;;;;;;5023641;28;20794;-53
2022/06/18 06:41:44;;;;;;;4.73;4.07;;;22.20;89.20;;;;;;5022227;28;20526;-53
2022/06/18 06:44:11;;;;;;;3.33;3.03;;;22.40;90.50;;;;;;5022774;28;20487;-53
2022/06/18 06:46:37;;;;;;;5.03;3.30;;;22.60;90.10;;;;;;4998982;28;20537;-53
2022/06/18 06:49:04;;;;;;;3.17;2.87;;;22.90;89.60;;;;;;5027277;28;20480;-53
2022/06/18 06:51:35;;;;;;;3.63;3.33;;;23.10;89.00;;;;;;5026495;28;20495;-53
2022/06/18 06:54:02;;;;;;;3.30;3.00;;;23.50;89.00;;;;;;5026763;28;21044;-53
2022/06/18 06:59:14;;;;;;;3.30;3.00;;;24.00;89.20;;;;;;5011343;28;20642;-53
2022/06/18 07:01:41;;;;;;;2.80;2.60;;;24.30;88.50;;;;;;5032701;28;20468;-53
2022/06/18 07:04:10;;;;;;;3.63;3.33;;;24.70;86.40;;;;;;5018179;28;20484;-54
2022/06/18 07:06:37;;;;;;;3.40;3.10;;;24.90;87.10;;;;;;5016078;28;20484;-53
2022/06/18 07:09:05;;;;;;;3.30;3.00;;;25.10;85.00;;;;;;5021147;28;20493;-53
2022/06/18 07:11:34;;;;;;;4.07;2.87;;;25.40;85.30;;;;;;5020406;28;20489;-53
2022/06/18 07:14:00;;;;;;;3.73;3.30;;;25.60;84.90;;;;;;5023114;28;20579;-53
2022/06/18 07:16:27;;;;;;;4.30;2.90;;;25.70;85.70;;;;;;5014571;28;20483;-53
2022/06/18 07:18:55;;;;;;;3.80;2.60;;;26.10;83.20;;;;;;5030787;28;20488;-54
2022/06/18 07:21:22;;;;;;;3.77;3.10;;;26.10;83.90;;;;;;5021656;28;20480;-54
2022/06/18 07:23:49;;;;;;;3.00;2.70;;;26.30;85.10;;;;;;5015431;28;20591;-53
2022/06/18 07:26:19;;;;;;;5.60;3.30;;;26.80;83.50;;;;;;5023064;28;20850;-53
2022/06/18 07:28:47;;;;;;;3.43;2.97;;;26.90;82.80;;;;;;5006513;28;21884;-53
2022/06/18 07:31:16;;;;;;;4.00;2.40;;;27.20;83.40;;;;;;5021643;28;20881;-53
2022/06/18 07:33:46;;;;;;;3.53;3.23;;;27.50;83.50;;;;;;5022908;28;20489;-53
2022/06/18 07:36:12;;;;;;;4.27;2.50;;;27.80;82.60;;;;;;5017386;28;21037;-53
2022/06/18 07:38:39;;;;;;;3.20;2.83;;;28.10;81.80;;;;;;5013064;28;20785;-54
2022/06/18 07:41:06;;;;;;;6.20;3.47;;;28.40;81.30;;;;;;5029579;28;20475;-53
2022/06/18 07:43:36;;;;;;;2.90;2.70;;;28.60;80.90;;;;;;5014926;28;20510;-54
2022/06/18 07:46:06;;;;;;;4.30;3.70;;;28.70;79.60;;;;;;5008559;28;20481;-54
2022/06/18 07:48:34;;;;;;;3.20;2.67;;;29.00;79.80;;;;;;5016859;28;20568;-54
2022/06/18 07:51:01;;;;;;;3.47;3.17;;;29.10;79.50;;;;;;5018937;28;20484;-53
2022/06/18 07:53:28;;;;;;;2.67;2.47;;;29.20;80.00;;;;;;5017215;28;20484;-53
2022/06/18 07:55:56;;;;;;;4.67;2.70;;;29.60;80.10;;;;;;5016923;28;20488;-54
2022/06/18 07:58:23;;;;;;;3.00;2.80;;;29.70;80.10;;;;;;5010481;28;20488;-54
2022/06/18 08:00:49;;;;;;;3.20;2.90;;;30.00;79.30;;;;;;5033134;28;20515;-53
2022/06/18 08:03:18;;;;;;;2.90;2.70;;;30.20;81.30;;;;;;5016560;28;20559;-54
2022/06/18 08:05:46;;;;;;;2.80;2.57;;;30.40;78.70;;;;;;5015925;28;20476;-53
2022/06/18 08:08:13;;;;;;;3.67;3.03;;;30.80;77.70;;;;;;5019742;28;20583;-54
2022/06/18 08:10:42;;;;;;;3.53;2.60;;;30.80;77.00;;;;;;5009765;28;20508;-54
2022/06/18 08:13:09;;;;;;;3.73;2.50;;;31.10;76.70;;;;;;5022900;28;20495;-54
2022/06/18 08:15:36;;;;;;;4.23;3.00;;;31.30;76.30;;;;;;5015127;28;20592;-54
2022/06/18 08:18:03;;;;;;;2.60;2.40;;;31.50;73.60;;;;;;5026504;28;20477;-53
2022/06/18 08:20:32;;;;;;;3.20;2.50;;;31.60;71.60;;;;;;5015443;28;20963;-54
2022/06/18 08:23:01;;;;;;;8.20;2.50;;;32.00;73.30;;;;;;5011064;28;20506;-53
2022/06/18 08:25:30;;;;;;;3.23;2.50;;;32.20;72.70;;;;;;5019014;28;20484;-54
2022/06/18 08:27:58;;;;;;;2.87;2.40;;;32.20;73.30;;;;;;5009799;28;20496;-54
2022/06/18 08:30:26;;;;;;;3.30;2.10;;;32.50;69.50;;;;;;5015520;28;20484;-53
2022/06/18 08:32:53;;;;;;;2.70;2.50;;;32.70;70.90;;;;;;5019365;28;20595;-54
2022/06/18 08:35:19;;;;;;;3.87;2.53;;;32.70;70.80;;;;;;5012715;28;20480;-55
2022/06/18 08:37:49;;;;;;;3.93;2.57;;;32.80;71.30;;;;;;5016062;28;20989;-53
2022/06/18 08:40:36;;;;;;;4.63;2.87;;;32.90;70.50;;;;;;5017705;28;20575;-53
2022/06/18 08:43:12;;;;;;;4.47;2.23;;;33.20;73.00;;;;;;5020674;28;20840;-53
2022/06/18 08:45:45;;;;;;;2.40;2.20;;;33.40;68.90;;;;;;5018973;28;20463;-53
2022/06/18 08:48:27;;;;;;;3.20;2.10;;;33.20;63.60;;;;;;5009462;28;20498;-53
2022/06/18 08:51:04;;;;;;;3.83;3.60;;;33.00;63.20;;;;;;5026273;28;20488;-53
2022/06/18 08:53:48;;;;;;;3.13;2.00;;;32.80;63.20;;;;;;5009795;28;20472;-53
2022/06/18 08:56:21;;;;;;;4.43;2.20;;;32.80;65.20;;;;;;5017191;28;20480;-53
2022/06/18 08:58:56;;;;;;;2.83;2.03;;;33.00;61.70;;;;;;5008048;28;20486;-53
2022/06/18 09:01:28;;;;;;;2.10;1.80;;;33.30;62.90;;;;;;5024899;28;20472;-53
2022/06/18 09:04:03;;;;;;;3.97;1.70;;;33.40;58.50;;;;;;5020085;28;20480;-53
2022/06/18 09:06:44;;;;;;;2.67;2.13;;;33.40;59.30;;;;;;5000882;28;20484;-53
2022/06/18 09:09:20;;;;;;;4.73;2.10;;;33.20;59.80;;;;;;5009150;28;20490;-55
2022/06/18 09:11:58;;;;;;;2.30;2.07;;;32.90;57.70;;;;;;5018293;28;21001;-54
2022/06/18 09:14:33;;;;;;;4.90;1.97;;;33.00;60.90;;;;;;5016815;28;20864;-53
2022/06/18 09:17:08;;;;;;;2.10;1.90;;;33.00;61.30;;;;;;5011086;28;20483;-53
2022/06/18 09:19:37;;;;;;;3.97;2.00;;;33.20;61.10;;;;;;5014577;28;20480;-53
2022/06/18 09:22:08;;;;;;;5.70;2.30;;;33.40;60.60;;;;;;5014870;28;20466;-53
2022/06/18 09:24:40;;;;;;;4.10;2.80;;;33.30;58.40;;;;;;5015404;28;20463;-55
2022/06/18 09:27:11;;;;;;;4.23;1.93;;;33.00;62.50;;;;;;5014561;28;20579;-54
2022/06/18 09:29:43;;;;;;;2.93;2.20;;;33.20;59.30;;;;;;5018590;28;20564;-54
2022/06/18 09:32:14;;;;;;;2.43;1.80;;;33.20;57.80;;;;;;5012163;28;20484;-52
2022/06/18 09:34:47;;;;;;;2.23;1.57;;;33.10;58.20;;;;;;5012053;28;20485;-54
2022/06/18 09:37:18;;;;;;;2.73;1.80;;;33.00;56.80;;;;;;5017014;28;20519;-53
2022/06/18 09:39:49;;;;;;;2.40;2.20;;;33.00;56.60;;;;;;5014353;28;20539;-53
2022/06/18 09:42:21;;;;;;;2.17;1.67;;;33.00;58.60;;;;;;5002292;28;20455;-54
2022/06/18 09:44:52;;;;;;;2.50;2.30;;;33.10;55.30;;;;;;5035485;28;20451;-54
2022/06/18 09:47:25;;;;;;;3.00;1.80;;;33.10;56.40;;;;;;5018991;28;20486;-54
2022/06/18 09:49:52;;;;;;;2.73;1.67;;;33.10;55.10;;;;;;5030728;28;20484;-53
2022/06/18 09:52:28;;;;;;;4.90;1.80;;;33.20;54.00;;;;;;5031750;28;20482;-54
2022/06/18 09:55:02;;;;;;;2.80;1.93;;;33.00;54.80;;;;;;5020630;28;21033;-56
2022/06/18 09:57:35;;;;;;;9.70;2.30;;;33.00;52.50;;;;;;5022109;28;20483;-55
2022/06/18 10:00:06;;;;;;;6.00;2.00;;;32.80;53.70;;;;;;5026105;28;21016;-55
2022/06/18 10:02:35;;;;;;;2.30;1.97;;;32.70;54.00;;;;;;5010453;28;20487;-53
2022/06/18 10:07:55;;;;;;;7.37;2.07;;;33.10;53.70;;;;;;5014308;28;20541;-54
2022/06/18 10:10:26;;;;;;;10.00;2.60;;;33.20;55.60;;;;;;5014988;28;20484;-54
2022/06/18 10:12:56;;;;;;;2.97;1.77;;;33.10;52.50;;;;;;5015676;28;20515;-53
2022/06/18 10:15:24;;;;;;;4.30;1.90;;;33.20;54.70;;;;;;5011304;28;20455;-53
2022/06/18 10:18:05;;;;;;;2.43;2.10;;;33.00;52.30;;;;;;5029656;28;20528;-53
2022/06/18 10:20:41;;;;;;;4.77;1.83;;;33.40;54.40;;;;;;5015732;28;20488;-52
2022/06/18 10:23:21;;;;;;;1.90;1.60;;;33.40;51.90;;;;;;5031475;28;20570;-54
2022/06/18 10:25:57;;;;;;;2.20;1.70;;;33.40;52.20;;;;;;5008940;28;20463;-54
2022/06/18 10:28:36;;;;;;;3.67;2.00;;;33.50;54.00;;;;;;5027267;28;20475;-53
2022/06/18 10:31:10;;;;;;;2.50;2.03;;;33.60;54.20;;;;;;5021989;28;20492;-55
2022/06/18 10:33:43;;;;;;;3.40;2.03;;;33.50;50.70;;;;;;5014403;28;20479;-54
2022/06/18 10:36:17;;;;;;;8.03;2.03;;;33.60;52.50;;;;;;5022491;28;20488;-53
2022/06/18 10:39:02;;;;;;;2.50;1.63;;;33.70;52.20;;;;;;5006904;28;20797;-54
2022/06/18 10:41:39;;;;;;;2.47;1.77;;;33.90;50.80;;;;;;5022710;28;20491;-53
2022/06/18 10:44:17;;;;;;;3.17;2.03;;;33.90;51.70;;;;;;5012408;28;20458;-54
2022/06/18 10:46:44;;;;;;;3.07;1.90;;;;;;;;;;5027290;28;20466;-54
2022/06/18 10:49:11;;;;;;;2.40;1.90;;;33.90;51.50;;;;;;5011958;28;20526;-53
2022/06/18 10:51:44;;;;;;;6.30;2.07;;;33.90;51.10;;;;;;5023030;28;20876;-54
2022/06/18 10:54:11;;;;;;;11.60;2.90;;;34.10;51.10;;;;;;5025059;28;20445;-54
2022/06/18 10:56:52;;;;;;;2.40;1.63;;;34.10;50.90;;;;;;5020352;28;20458;-53
2022/06/18 10:59:32;;;;;;;5.60;2.23;;;34.00;51.30;;;;;;5018699;28;20483;-54
2022/06/18 11:02:12;;;;;;;8.90;2.23;;;34.10;51.50;;;;;;5020630;28;20495;-53
2022/06/18 11:04:40;;;;;;;6.60;2.30;;;34.10;48.40;;;;;;5013982;28;20854;-54
2022/06/18 11:07:09;;;;;;;4.20;2.23;;;34.10;49.90;;;;;;5024321;28;20492;-53
2022/06/18 11:09:51;;;;;;;4.80;2.90;;;34.20;49.60;;;;;;5010822;28;20786;-55
2022/06/18 11:12:23;;;;;;;8.50;2.03;;;34.20;50.20;;;;;;5014693;28;20712;-51
2022/06/18 11:14:50;;;;;;;4.93;2.37;;;34.20;51.40;;;;;;5015428;28;20463;-52
2022/06/18 11:17:21;;;;;;;8.10;2.00;;;34.40;50.50;;;;;;5014878;28;20929;-54
2022/06/18 11:19:49;;;;;;;8.40;2.13;;;34.40;49.40;;;;;;5019196;28;21032;-53
2022/06/18 11:22:18;;;;;;;7.17;2.80;;;34.60;51.80;;;;;;5008224;28;20562;-54
2022/06/18 11:24:52;;;;;;;10.07;3.07;;;34.60;49.20;;;;;;5026649;28;20473;-55
2022/06/18 11:27:21;;;;;;;7.30;2.10;;;34.60;49.20;;;;;;5005301;28;20480;-55
2022/06/18 11:29:51;;;;;;;6.30;2.17;;;34.50;47.60;;;;;;5015361;28;20863;-54
2022/06/18 11:32:23;;;;;;;7.00;2.13;;;34.50;49.20;;;;;;5003915;28;20463;-54
2022/06/18 11:34:52;;;;;;;4.43;2.20;;;34.50;48.80;;;;;;4994025;28;20455;-53
2022/06/18 11:37:21;;;;;;;6.03;2.53;;;34.40;48.40;;;;;;5000973;28;20477;-53
2022/06/18 11:39:54;;;;;;;11.53;2.50;;;34.50;49.80;;;;;;4988958;28;20554;-54
2022/06/18 11:42:29;;;;;;;6.57;1.87;;;34.60;47.40;;;;;;4980381;28;21529;-55
2022/06/18 11:45:03;;;;;;;6.67;2.30;;;34.80;48.90;;;;;;4991768;28;20476;-53
2022/06/18 11:47:35;;;;;;;7.17;2.80;;;34.80;48.40;;;;;;4995986;28;20442;-58
2022/06/18 11:50:08;;;;;;;5.73;2.80;;;35.00;46.60;;;;;;4998684;28;20486;-53
2022/06/18 11:52:44;;;;;;;6.03;2.40;;;35.10;47.80;;;;;;5000246;28;20480;-55
2022/06/18 11:55:23;;;;;;;8.10;2.50;;;35.20;48.20;;;;;;5001636;28;20479;-51
2022/06/18 11:57:58;;;;;;;14.07;3.10;;;35.20;47.50;;;;;;5003570;28;20545;-51
2022/06/18 12:00:30;;;;;;;11.43;2.83;;;35.10;46.20;;;;;;5006518;28;21111;-51
2022/06/18 12:03:09;;;;;;;8.10;3.37;;;35.00;45.70;;;;;;4994450;28;20486;-52
2022/06/18 12:05:41;;;;;;;13.40;3.23;;;35.10;46.90;;;;;;5014228;28;20463;-51
2022/06/18 12:08:08;;;;;;;5.47;2.50;;;35.10;47.30;;;;;;4994499;28;22083;-51
2022/06/18 12:10:45;;;;;;;6.13;2.83;;;35.30;47.20;;;;;;5005200;28;20462;-50
2022/06/18 12:13:23;;;;;;;5.97;3.33;;;35.50;46.80;;;;;;4999764;28;20465;-51
2022/06/18 12:15:59;;;;;;;8.73;3.23;;;35.80;47.30;;;;;;4998178;28;20496;-51
2022/06/18 12:18:31;;;;;;;9.07;2.87;;;35.90;47.50;;;;;;4990489;28;20895;-52
2022/06/18 12:21:07;;;;;;;7.13;2.40;;;36.30;52.10;;;;;;4996619;28;20534;-53
2022/06/18 12:23:42;;;;;;;10.50;4.53;;;36.60;49.60;;;;;;5009304;28;20492;-53
2022/06/18 12:26:18;;;;;;;16.83;4.47;;;36.30;45.50;;;;;;5008489;28;20483;-52
2022/06/18 12:29:13;;;;;;;8.90;2.70;;;36.30;47.10;;;;;;5000343;28;20476;-51
2022/06/18 12:31:46;;;;;;;6.40;2.57;;;36.40;47.80;;;;;;4995243;28;20462;-51
2022/06/18 12:34:19;;;;;;;6.63;2.77;;;36.50;48.10;;;;;;5003721;28;20452;-52
2022/06/18 12:36:53;;;;;;;7.93;2.67;;;36.30;43.40;;;;;;5002271;28;20487;-52
2022/06/18 12:39:30;;;;;;;8.93;3.00;;;36.30;44.90;;;;;;5012622;28;20487;-52
2022/06/18 12:42:02;;;;;;;8.23;2.77;;;36.20;45.80;;;;;;5002547;28;20459;-52
2022/06/18 12:44:37;;;;;;;11.27;3.47;;;36.10;44.00;;;;;;5022035;28;21057;-53
2022/06/18 12:47:10;;;;;;;7.10;2.43;;;36.40;50.40;;;;;;4995224;28;20750;-52
2022/06/18 12:49:45;;;;;;;12.57;2.87;;;36.60;44.80;;;;;;5015334;28;20827;-52
2022/06/18 12:52:21;;;;;;;7.60;2.50;;;36.60;47.10;;;;;;5003783;28;20451;-52
2022/06/18 12:55:08;;;;;;;2.60;2.13;;;37.00;46.90;;;;;;5009277;28;20454;-52
2022/06/18 12:57:44;;;;;;;12.13;2.67;;;37.20;50.10;;;;;;4994025;28;20871;-51
2022/06/18 13:00:15;;;;;;;14.67;3.87;;;36.90;44.40;;;;;;5003093;28;20566;-52
2022/06/18 13:03:16;;;;;;;13.03;3.00;;;36.80;42.90;;;;;;5008514;28;20854;-52
2022/06/18 13:05:46;;;;;;;9.60;2.80;;;36.80;45.10;;;;;;4994161;28;20483;-52
2022/06/18 13:08:28;;;;;;;9.63;2.50;;;36.70;44.80;;;;;;5005497;28;20488;-52
2022/06/18 13:11:03;;;;;;;5.57;2.10;;;36.70;45.50;;;;;;5009238;28;21137;-51
2022/06/18 13:13:42;;;;;;;14.47;4.00;;;37.00;46.00;;;;;;5009038;28;20722;-52
2022/06/18 13:16:15;;;;;;;11.57;3.53;;;36.90;44.00;;;;;;5009873;28;20451;-52